Time;durP1;ratioP1;P1;durP2;ratioP2;P2;SDS_P1;SDS_P2;PMS_P1;PMS_P2;Temp;Humidity;BMP_temperature;BMP_pressure;BME280_temperature;BME280_humidity;BME280_pressure;Samples;Min_cycle;Max_cycle;Signal;HPM_P1;HPM_P2
2022/05/30 00:01:15;;;;;;;;;3.25;3.25;;;;;14.42;49.18;101055.31;5071903;28;45390;-58
2022/05/30 00:03:41;;;;;;;;;4.50;3.25;;;;;14.40;49.31;101051.09;5068927;28;45979;-58
2022/05/30 00:06:13;;;;;;;;;4.50;3.00;;;;;14.37;49.01;101064.53;5070618;28;45916;-58
2022/05/30 00:08:39;;;;;;;;;3.50;2.00;;;;;14.34;49.24;101062.94;5071963;28;45307;-58
2022/05/30 00:11:08;;;;;;;;;2.00;2.00;;;;;14.30;49.39;101052.66;5074302;28;45588;-59
2022/05/30 00:13:34;;;;;;;;;16.25;14.50;;;;;14.29;49.46;101056.25;5069297;28;45396;-57
2022/05/30 00:16:08;;;;;;;;;1.25;1.25;;;;;14.27;49.42;101047.59;5070692;28;45415;-59
2022/05/30 00:18:34;;;;;;;;;2.00;2.00;;;;;14.24;49.75;101049.50;5067129;28;45333;-59
2022/05/30 00:21:00;;;;;;;;;2.25;2.25;;;;;14.24;49.69;101044.19;5071708;28;45347;-59
2022/05/30 00:23:26;;;;;;;;;5.00;3.00;;;;;14.25;49.66;101042.41;5069938;28;45905;-58
2022/05/30 00:25:52;;;;;;;;;4.50;3.25;;;;;14.24;49.82;101046.84;5066756;28;45193;-59
2022/05/30 00:28:17;;;;;;;;;7.75;5.00;;;;;14.21;49.75;101035.59;5070767;28;45337;-59
2022/05/30 00:30:47;;;;;;;;;4.25;4.25;;;;;14.16;49.85;101027.16;5072453;28;45298;-59
2022/05/30 00:33:13;;;;;;;;;4.50;3.75;;;;;14.12;49.92;101030.94;5066764;28;46265;-57
2022/05/30 00:35:40;;;;;;;;;5.50;4.00;;;;;14.10;50.04;101033.72;5070452;28;45399;-58
2022/05/30 00:38:07;;;;;;;;;8.25;6.00;;;;;14.09;49.98;101028.53;5070046;28;45493;-60
2022/05/30 00:40:33;;;;;;;;;4.25;4.25;;;;;14.06;50.15;101040.19;5066815;28;45327;-59
2022/05/30 00:43:24;;;;;;;;;4.50;4.50;;;;;14.04;50.32;101031.47;5070734;28;45230;-59
2022/05/30 00:45:49;;;;;;;;;6.75;4.50;;;;;13.98;50.25;101026.59;5072510;28;45394;-60
2022/05/30 00:48:18;;;;;;;;;5.00;5.00;;;;;13.96;50.41;101025.84;5070515;28;45398;-58
2022/05/30 00:50:45;;;;;;;;;5.00;4.00;;;;;13.96;50.65;101020.56;5070679;28;45454;-59
2022/05/30 00:53:12;;;;;;;;;4.50;3.75;;;;;13.98;50.77;101013.34;5069534;28;46259;-59
2022/05/30 00:55:39;;;;;;;;;7.00;4.25;;;;;13.94;50.64;101019.81;5068650;28;45530;-59
2022/05/30 00:58:07;;;;;;;;;6.00;4.00;;;;;13.91;50.88;101009.47;5069572;28;45425;-59
2022/05/30 01:00:33;;;;;;;;;4.75;4.25;;;;;13.90;50.97;101013.03;5068904;28;45492;-59
2022/05/30 01:08:30;;;;;;;;;3.50;3.00;;;;;13.90;51.12;101008.63;5073339;28;45303;-59
2022/05/30 01:10:56;;;;;;;;;2.00;1.00;;;;;13.88;51.26;101007.00;5071946;28;45327;-59
2022/05/30 01:13:23;;;;;;;;;2.00;2.00;;;;;13.89;51.33;101004.25;5072428;28;45278;-59
2022/05/30 01:15:49;;;;;;;;;2.00;2.00;;;;;13.90;51.21;100999.78;5068863;28;45433;-58
2022/05/30 01:18:31;;;;;;;;;3.50;3.50;;;;;13.89;51.24;100995.44;5068093;28;45302;-56
2022/05/30 01:21:15;;;;;;;;;3.50;3.00;;;;;13.87;51.30;100994.72;5068299;28;45328;-58
2022/05/30 01:23:41;;;;;;;;;0.75;0.75;;;;;13.87;51.56;100992.91;5069749;28;45362;-57
2022/05/30 01:26:17;;;;;;;;;4.00;3.00;;;;;13.83;51.49;100993.25;5069156;28;45355;-57
2022/05/30 01:28:49;;;;;;;;;3.50;3.00;;;;;13.80;51.66;100996.94;5070731;28;45488;-58
2022/05/30 01:31:16;;;;;;;;;2.75;2.75;;;;;13.80;51.67;100993.44;5068964;28;45260;-53
2022/05/30 01:33:42;;;;;;;;;2.75;2.75;;;;;13.81;51.81;100995.97;5068747;28;45473;-56
2022/05/30 01:36:08;;;;;;;;;2.00;2.00;;;;;13.82;51.75;100994.19;5068611;28;45346;-57
2022/05/30 01:38:34;;;;;;;;;2.25;2.25;;;;;13.83;51.79;100994.09;5069228;28;45307;-58
2022/05/30 01:41:00;;;;;;;;;4.00;3.00;;;;;13.83;51.88;100986.16;5071628;28;45628;-59
2022/05/30 01:43:26;;;;;;;;;3.75;3.75;;;;;13.85;51.96;100991.34;5069401;28;45436;-58
2022/05/30 01:45:52;;;;;;;;;3.50;3.00;;;;;13.86;52.18;100991.22;5072079;28;45354;-58
2022/05/30 01:48:17;;;;;;;;;4.50;4.00;;;;;13.85;52.08;100993.97;5072439;28;45294;-58
2022/05/30 01:50:45;;;;;;;;;4.25;4.25;;;;;13.76;52.19;100994.63;5075395;28;45207;-59
2022/05/30 01:53:11;;;;;;;;;4.00;4.00;;;;;13.74;52.14;100993.84;5063419;28;45914;-59
2022/05/30 01:55:37;;;;;;;;;3.00;2.00;;;;;13.71;52.21;100994.06;5063502;28;45357;-59
2022/05/30 01:58:03;;;;;;;;;3.25;3.00;;;;;13.65;52.45;100993.53;5064063;28;45292;-59
2022/05/30 02:00:29;;;;;;;;;4.00;3.25;;;;;13.64;52.48;101001.59;5062112;28;45380;-58
2022/05/30 02:02:54;;;;;;;;;2.75;2.75;;;;;13.60;52.42;101000.09;5062912;28;45503;-58
2022/05/30 02:05:20;;;;;;;;;5.25;4.00;;;;;13.58;52.40;100997.53;5063475;28;45494;-58
2022/05/30 02:07:45;;;;;;;;;4.00;3.00;;;;;13.58;52.64;100992.25;5064203;28;45367;-58
2022/05/30 02:10:11;;;;;;;;;5.25;3.75;;;;;13.54;52.58;100997.88;5063922;28;45260;-59
2022/05/30 02:12:36;;;;;;;;;5.00;5.00;;;;;13.49;52.61;100994.69;5066724;28;45337;-58
2022/05/30 02:15:02;;;;;;;;;3.25;3.00;;;;;13.43;52.76;101000.38;5063780;28;45438;-59
2022/05/30 02:17:28;;;;;;;;;7.75;5.00;;;;;13.38;52.81;100998.06;5064058;28;45298;-58
2022/05/30 02:19:54;;;;;;;;;4.50;4.00;;;;;13.33;52.67;100997.50;5063757;28;45490;-58
2022/05/30 02:22:22;;;;;;;;;5.00;4.50;;;;;13.33;52.97;100989.56;5063552;28;46188;-58
2022/05/30 02:24:48;;;;;;;;;5.00;3.00;;;;;13.36;52.91;100990.22;5063438;28;45355;-58
2022/05/30 02:27:15;;;;;;;;;7.25;4.00;;;;;13.40;52.89;100989.06;5063244;28;45495;-59
2022/05/30 02:29:41;;;;;;;;;6.00;4.50;;;;;13.35;53.03;100990.28;5063667;28;46292;-58
2022/05/30 02:32:07;;;;;;;;;7.00;5.25;;;;;13.32;53.11;100995.81;5063465;28;45347;-58
2022/05/30 02:37:17;;;;;;;;;7.25;7.00;;;;;13.22;53.08;100995.56;5063510;28;45359;-58
2022/05/30 02:39:43;;;;;;;;;6.25;5.00;;;;;13.25;53.20;100989.22;5063477;28;45321;-58
2022/05/30 02:42:09;;;;;;;;;8.25;6.00;;;;;13.28;53.42;100983.75;5062814;28;45860;-58
2022/05/30 02:44:36;;;;;;;;;6.50;6.25;;;;;13.30;53.32;100990.63;5063481;28;45252;-59
2022/05/30 02:47:01;;;;;;;;;10.00;6.00;;;;;13.32;53.38;100995.81;5063149;28;45354;-59
2022/05/30 02:49:28;;;;;;;;;6.75;6.75;;;;;13.31;53.43;100991.47;5062048;28;45396;-58
2022/05/30 02:51:54;;;;;;;;;7.25;5.00;;;;;13.30;53.57;100992.41;5062945;28;45502;-58
2022/05/30 02:54:20;;;;;;;;;4.00;3.25;;;;;13.29;53.69;100991.56;5063292;28;45422;-58
2022/05/30 02:56:53;;;;;;;;;6.75;4.50;;;;;13.27;53.72;100990.84;5061575;28;45268;-58
2022/05/30 02:59:19;;;;;;;;;4.00;4.00;;;;;13.28;53.59;100986.41;5063554;28;45332;-58
2022/05/30 03:01:45;;;;;;;;;5.25;4.00;;;;;13.27;53.76;100990.84;5062920;28;45317;-58
2022/05/30 03:04:11;;;;;;;;;5.25;5.25;;;;;13.24;53.72;100988.38;5063118;28;45512;-58
2022/05/30 03:06:37;;;;;;;;;4.00;3.25;;;;;13.22;53.70;100987.63;5063194;28;45239;-59
2022/05/30 03:09:05;;;;;;;;;4.00;4.00;;;;;13.21;53.96;100980.66;5063238;28;45146;-58
2022/05/30 03:11:31;;;;;;;;;4.25;4.00;;;;;13.20;53.82;100986.91;5066069;28;46305;-58
2022/05/30 03:13:56;;;;;;;;;6.50;4.75;;;;;13.16;53.70;100990.66;5063165;28;45604;-58
2022/05/30 03:16:22;;;;;;;;;4.00;4.00;;;;;13.13;53.79;100989.06;5063095;28;45398;-58
2022/05/30 03:18:48;;;;;;;;;3.25;3.25;;;;;13.11;53.91;100998.91;5063021;28;45473;-59
2022/05/30 03:21:13;;;;;;;;;9.25;4.00;;;;;13.12;54.02;100983.88;5062725;28;45442;-58
2022/05/30 03:23:39;;;;;;;;;6.50;3.75;;;;;13.12;54.02;100999.75;5062802;28;45260;-59
2022/05/30 03:26:06;;;;;;;;;5.00;5.00;;;;;13.12;53.97;100986.53;5062409;28;45382;-58
2022/05/30 03:28:32;;;;;;;;;6.00;5.50;;;;;13.08;54.04;100993.81;5061614;28;45528;-58
2022/05/30 03:30:59;;;;;;;;;6.25;4.25;;;;;13.10;54.08;101007.75;5062532;28;45241;-58
2022/05/30 03:33:24;;;;;;;;;4.00;4.00;;;;;13.13;54.06;101001.44;5062554;28;45290;-59
2022/05/30 03:35:50;;;;;;;;;5.75;4.00;;;;;13.13;54.18;101006.72;5062604;28;45433;-58
2022/05/30 03:38:16;;;;;;;;;6.00;6.00;;;;;13.13;54.28;101004.94;5062766;28;45294;-58
2022/05/30 03:40:43;;;;;;;;;5.75;4.75;;;;;13.11;54.43;101001.56;5062122;28;45456;-58
2022/05/30 03:43:10;;;;;;;;;5.50;5.50;;;;;13.09;54.27;100999.94;5062275;28;45352;-59
2022/05/30 03:45:44;;;;;;;;;5.75;5.00;;;;;13.05;54.28;100998.47;5062361;28;45602;-59
2022/05/30 03:48:13;;;;;;;;;9.00;5.50;;;;;13.04;54.15;101000.25;5062634;28;45329;-58
2022/05/30 03:50:40;;;;;;;;;5.75;5.00;;;;;13.03;54.27;100992.41;5062063;28;45328;-59
2022/05/30 03:53:06;;;;;;;;;6.75;5.00;;;;;13.00;54.37;101005.84;5062474;28;45594;-58
2022/05/30 03:55:34;;;;;;;;;6.25;5.00;;;;;13.01;54.58;101007.53;5062092;28;45409;-58
2022/05/30 03:58:05;;;;;;;;;6.25;4.75;;;;;13.03;54.36;101005.63;5062211;28;45405;-58
2022/05/30 04:00:32;;;;;;;;;7.00;6.25;;;;;13.00;54.40;101006.69;5063599;28;45312;-58
2022/05/30 04:02:59;;;;;;;;;6.50;6.00;;;;;12.98;54.52;101005.09;5062131;28;45346;-59
2022/05/30 04:05:26;;;;;;;;;6.50;5.00;;;;;12.94;54.63;101015.00;5062127;28;45355;-58
2022/05/30 04:07:51;;;;;;;;;5.25;4.00;;;;;12.90;54.49;101013.53;5061858;28;45283;-58
2022/05/30 04:10:17;;;;;;;;;6.75;5.00;;;;;12.88;54.62;101015.41;5061768;28;46478;-59
2022/05/30 04:12:42;;;;;;;;;6.25;4.25;;;;;12.90;54.49;101015.31;5065245;28;45215;-59
2022/05/30 04:15:16;;;;;;;;;4.75;4.75;;;;;12.90;54.64;101016.16;5062000;28;45173;-59
2022/05/30 04:17:42;;;;;;;;;4.75;4.75;;;;;12.84;54.67;101016.56;5062272;28;45322;-59
2022/05/30 04:20:08;;;;;;;;;9.25;6.50;;;;;12.78;54.69;101028.34;5061845;28;46179;-59
2022/05/30 04:22:33;;;;;;;;;6.00;5.25;;;;;12.78;54.77;101025.72;5061720;28;45338;-58
2022/05/30 04:24:59;;;;;;;;;5.25;3.75;;;;;12.78;54.61;101031.00;5061958;28;45220;-58
2022/05/30 04:27:24;;;;;;;;;5.00;5.00;;;;;12.78;54.82;101027.50;5061491;28;45496;-58
2022/05/30 04:29:50;;;;;;;;;5.00;4.50;;;;;12.77;54.98;101031.94;5061602;28;45549;-58
2022/05/30 04:32:16;;;;;;;;;5.00;4.25;;;;;12.79;54.74;101023.91;5061708;28;45314;-58
2022/05/30 04:34:43;;;;;;;;;11.00;6.00;;;;;12.83;54.85;101026.28;5061638;28;45442;-58
2022/05/30 04:37:09;;;;;;;;;5.75;5.25;;;;;12.83;54.94;101022.78;5061904;28;45258;-58
2022/05/30 04:39:35;;;;;;;;;8.75;5.50;;;;;12.84;55.09;101027.13;5061452;28;45671;-58
2022/05/30 04:42:01;;;;;;;;;6.75;5.00;;;;;12.84;54.91;101027.13;5061047;28;45252;-58
2022/05/30 04:44:26;;;;;;;;;5.00;5.00;;;;;12.88;54.80;101030.44;5061788;28;45353;-59
2022/05/30 04:46:57;;;;;;;;;7.25;6.25;;;;;12.92;55.20;101030.13;5061490;28;45228;-58
2022/05/30 04:49:23;;;;;;;;;6.25;5.00;;;;;12.91;55.01;101025.78;5060928;28;45591;-59
2022/05/30 04:51:50;;;;;;;;;5.75;5.50;;;;;12.88;55.02;101030.44;5060918;28;45466;-58
2022/05/30 04:54:16;;;;;;;;;5.50;4.25;;;;;12.88;55.14;101033.94;5061468;28;45280;-58
2022/05/30 04:56:42;;;;;;;;;11.50;6.00;;;;;12.82;55.00;101034.31;5061309;28;45255;-59
2022/05/30 04:59:08;;;;;;;;;7.00;6.00;;;;;12.77;55.08;101037.25;5061187;28;45882;-59
2022/05/30 05:01:36;;;;;;;;;8.25;6.00;;;;;12.79;55.09;101037.97;5061074;28;45204;-59
2022/05/30 05:04:04;;;;;;;;;6.75;6.25;;;;;12.80;55.11;101044.16;5061416;28;45493;-58
2022/05/30 05:06:30;;;;;;;;;7.00;5.25;;;;;12.83;55.10;101043.94;5061338;28;45231;-58
2022/05/30 05:09:17;;;;;;;;;9.00;7.00;;;;;12.83;54.98;101050.06;5061089;28;45317;-59
2022/05/30 05:11:45;;;;;;;;;12.75;9.00;;;;;12.84;55.07;101050.91;5063617;28;45434;-58
2022/05/30 05:14:11;;;;;;;;;9.25;5.50;;;;;12.87;55.24;101056.00;5061183;28;45243;-59
2022/05/30 05:16:37;;;;;;;;;10.50;7.00;;;;;12.91;55.00;101054.03;5060824;28;45502;-59
2022/05/30 05:19:03;;;;;;;;;10.50;9.75;;;;;12.95;55.19;101047.56;5060642;28;45995;-58
2022/05/30 05:21:35;;;;;;;;;10.00;6.25;;;;;12.96;54.91;101051.94;5060158;28;45276;-58
2022/05/30 05:24:03;;;;;;;;;7.25;6.00;;;;;13.03;55.29;101062.03;5060796;28;45279;-59
2022/05/30 05:26:29;;;;;;;;;7.00;7.00;;;;;13.09;54.86;101052.84;5060435;28;45509;-58
2022/05/30 05:28:54;;;;;;;;;6.50;6.50;;;;;13.18;55.10;101052.22;5059484;28;46183;-59
2022/05/30 05:31:24;;;;;;;;;10.25;7.00;;;;;13.26;55.08;101051.75;5064956;28;45408;-58
2022/05/30 05:33:50;;;;;;;;;7.75;6.50;;;;;13.32;55.10;101051.38;5060792;28;45201;-58
2022/05/30 05:36:26;;;;;;;;;9.75;6.50;;;;;13.42;55.05;101055.09;5064079;28;45465;-59
2022/05/30 05:38:52;;;;;;;;;5.75;5.50;;;;;13.50;55.13;101054.59;5060552;28;45464;-58
2022/05/30 05:41:18;;;;;;;;;7.50;5.25;;;;;13.56;55.01;101048.91;5062757;28;45417;-61
2022/05/30 05:43:44;;;;;;;;;9.50;6.75;;;;;13.61;54.94;101055.59;5060499;28;45502;-61
2022/05/30 05:46:17;;;;;;;;;6.50;6.25;;;;;13.60;54.99;101053.91;5067889;28;45593;-63
2022/05/30 05:48:43;;;;;;;;;8.75;7.50;;;;;13.64;54.86;101065.13;5064556;28;45359;-58
2022/05/30 05:51:08;;;;;;;;;6.50;5.00;;;;;13.69;54.88;101058.56;5060267;28;45341;-59
2022/05/30 05:53:34;;;;;;;;;12.75;6.25;;;;;13.72;54.86;101060.16;5060221;28;45460;-59
2022/05/30 05:56:12;;;;;;;;;9.50;6.50;;;;;13.75;54.96;101070.56;5060418;28;45464;-59
2022/05/30 05:58:38;;;;;;;;;8.75;6.00;;;;;13.78;54.68;101065.03;5060272;28;45251;-58
2022/05/30 06:01:12;;;;;;;;;9.75;6.50;;;;;13.83;54.86;101075.34;5060419;28;45418;-58
2022/05/30 06:03:38;;;;;;;;;6.00;6.00;;;;;13.89;54.82;101069.59;5062910;28;45401;-59
2022/05/30 06:06:04;;;;;;;;;10.25;5.25;;;;;13.88;54.56;101066.09;5060356;28;45264;-58
2022/05/30 06:08:30;;;;;;;;;6.25;6.00;;;;;13.98;54.78;101063.69;5060093;28;46583;-58
2022/05/30 06:11:05;;;;;;;;;7.00;6.50;;;;;14.07;54.58;101070.16;5062821;28;45261;-59
2022/05/30 06:13:31;;;;;;;;;9.75;6.75;;;;;14.13;54.52;101078.53;5061006;28;45604;-58
2022/05/30 06:15:56;;;;;;;;;8.00;6.50;;;;;14.17;54.60;101085.31;5060288;28;45317;-59
2022/05/30 06:18:22;;;;;;;;;6.25;6.00;;;;;14.22;54.61;101077.91;5059995;28;45648;-59
2022/05/30 06:20:47;;;;;;;;;8.75;6.00;;;;;14.26;54.58;101078.53;5060002;28;45346;-59
2022/05/30 06:23:13;;;;;;;;;10.50;7.00;;;;;14.29;54.42;101080.13;5059975;28;45319;-59
2022/05/30 06:25:38;;;;;;;;;7.50;5.00;;;;;14.34;54.35;101070.91;5060134;28;45415;-59
2022/05/30 06:28:04;;;;;;;;;7.25;7.00;;;;;14.38;54.22;101063.59;5059761;28;45291;-58
2022/05/30 06:30:29;;;;;;;;;8.75;7.00;;;;;14.44;54.13;101069.28;5059841;28;45310;-59
2022/05/30 06:32:55;;;;;;;;;8.50;7.00;;;;;14.55;54.12;101067.75;5063446;28;45314;-58
2022/05/30 06:35:20;;;;;;;;;8.25;6.50;;;;;14.66;54.25;101070.47;5063584;28;45441;-59
2022/05/30 06:37:46;;;;;;;;;7.25;5.50;;;;;14.72;54.16;101073.53;5063291;28;46065;-58
2022/05/30 06:40:13;;;;;;;;;6.25;5.50;;;;;14.78;53.90;101074.91;5063258;28;45338;-59
2022/05/30 06:42:38;;;;;;;;;5.25;4.50;;;;;14.84;53.96;101077.09;5063262;28;45293;-59
2022/05/30 06:45:04;;;;;;;;;6.50;5.00;;;;;14.87;53.91;101084.00;5063595;28;45303;-58
2022/05/30 06:47:30;;;;;;;;;4.50;4.50;;;;;14.89;53.92;101088.25;5062896;28;45292;-57
2022/05/30 06:49:55;;;;;;;;;8.00;5.75;;;;;14.95;53.94;101081.66;5063320;28;45162;-57
2022/05/30 06:52:21;;;;;;;;;7.00;5.00;;;;;15.03;53.76;101087.25;5063058;28;45342;-58
2022/05/30 06:54:46;;;;;;;;;7.75;5.00;;;;;15.09;53.36;101089.47;5065953;28;45309;-58
2022/05/30 06:59:56;;;;;;;;;7.75;6.00;;;;;15.05;53.47;101078.22;5068915;27;45177;-58
2022/05/30 07:02:21;;;;;;;;;4.25;3.25;;;;;15.10;53.63;101071.75;5072104;27;45338;-56
2022/05/30 07:04:47;;;;;;;;;7.00;5.75;;;;;15.13;53.27;101082.13;5072322;28;45237;-58
2022/05/30 07:07:13;;;;;;;;;7.75;5.00;;;;;15.16;53.37;101077.44;5071973;28;45489;-60
2022/05/30 07:09:39;;;;;;;;;5.00;5.00;;;;;15.23;53.17;101068.06;5071266;28;45306;-59
2022/05/30 07:12:06;;;;;;;;;7.75;5.75;;;;;15.28;53.29;101068.56;5073918;28;45429;-60
2022/05/30 07:14:32;;;;;;;;;7.00;7.00;;;;;15.29;53.08;101064.97;5065400;28;45425;-59
2022/05/30 07:16:57;;;;;;;;;10.25;5.50;;;;;15.30;52.87;101066.66;5069021;28;45461;-57
2022/05/30 07:19:23;;;;;;;;;4.25;3.00;;;;;15.31;52.95;101064.84;5061406;28;45383;-57
2022/05/30 07:21:48;;;;;;;;;6.75;4.00;;;;;15.31;52.96;101071.00;5061960;28;45448;-57
2022/05/30 07:24:14;;;;;;;;;5.50;5.50;;;;;15.30;53.09;101079.06;5062138;28;45406;-57
2022/05/30 07:26:39;;;;;;;;;5.50;5.50;;;;;15.32;52.77;101079.81;5062247;28;46519;-57
2022/05/30 07:29:05;;;;;;;;;5.00;4.50;;;;;15.31;52.80;101078.13;5062565;28;45161;-57
2022/05/30 07:31:31;;;;;;;;;4.75;4.75;;;;;15.32;52.83;101070.06;5062800;28;45158;-57
2022/05/30 07:33:57;;;;;;;;;5.25;3.00;;;;;15.36;52.57;101070.66;5062577;28;45276;-58
2022/05/30 07:36:31;;;;;;;;;5.00;3.25;;;;;15.39;52.58;101073.09;5062405;28;46327;-58
2022/05/30 07:38:57;;;;;;;;;2.75;2.75;;;;;15.42;52.66;101077.34;5062205;28;45244;-58
2022/05/30 07:41:25;;;;;;;;;6.00;5.00;;;;;15.48;52.61;101071.56;5062253;28;45462;-58
2022/05/30 07:43:51;;;;;;;;;4.50;2.00;;;;;15.52;52.42;101075.69;5061575;28;45344;-58
2022/05/30 07:46:19;;;;;;;;;5.50;4.50;;;;;15.54;52.24;101071.09;5062029;28;45528;-58
2022/05/30 07:48:45;;;;;;;;;2.50;2.00;;;;;15.57;52.38;101071.75;5062170;28;45272;-58
2022/05/30 07:51:12;;;;;;;;;3.00;3.00;;;;;15.66;52.05;101069.38;5062399;28;45332;-58
2022/05/30 07:53:40;;;;;;;;;3.25;3.00;;;;;15.68;51.91;101072.75;5062078;28;45343;-59
2022/05/30 07:56:08;;;;;;;;;6.25;3.75;;;;;15.70;51.90;101068.19;5061951;28;45542;-59
2022/05/30 07:58:34;;;;;;;;;4.50;3.00;;;;;15.74;51.99;101065.19;5062112;28;45441;-59
2022/05/30 08:01:00;;;;;;;;;4.00;3.50;;;;;15.81;52.02;101065.56;5062404;28;45220;-59
2022/05/30 08:03:26;;;;;;;;;6.25;3.00;;;;;15.85;51.96;101067.84;5062430;28;45235;-59
2022/05/30 08:06:12;;;;;;;;;4.25;4.00;;;;;15.90;51.57;101070.19;5061753;28;45359;-59
2022/05/30 08:08:39;;;;;;;;;2.75;2.00;;;;;15.91;51.54;101066.56;5061560;28;45417;-58
2022/05/30 08:11:04;;;;;;;;;5.50;3.25;;;;;15.95;51.49;101070.66;5064383;28;45292;-58
2022/05/30 08:13:30;;;;;;;;;2.75;2.75;;;;;16.01;51.38;101074.66;5063676;28;45314;-59
2022/05/30 08:15:56;;;;;;;;;3.00;2.00;;;;;16.03;51.27;101086.84;5062084;28;45331;-58
2022/05/30 08:18:22;;;;;;;;;6.50;3.50;;;;;16.07;51.60;101077.69;5061982;28;45403;-58
2022/05/30 08:20:48;;;;;;;;;2.00;2.00;;;;;16.05;51.23;101082.28;5062378;28;45237;-58
2022/05/30 08:23:13;;;;;;;;;3.00;3.00;;;;;16.04;50.89;101077.09;5061801;28;45621;-58
2022/05/30 08:25:39;;;;;;;;;5.25;3.00;;;;;16.03;50.73;101070.91;5061634;28;46177;-58
2022/05/30 08:28:05;;;;;;;;;5.75;3.50;;;;;16.06;50.57;101069.84;5061502;28;45394;-58
2022/05/30 08:30:31;;;;;;;;;3.25;2.50;;;;;16.00;50.44;101071.16;5061874;28;45520;-58
2022/05/30 08:32:56;;;;;;;;;2.25;2.25;;;;;16.03;50.67;101064.75;5061728;28;45173;-59
2022/05/30 08:35:23;;;;;;;;;4.50;3.00;;;;;16.06;50.27;101064.53;5061935;28;45267;-58
2022/05/30 08:37:50;;;;;;;;;4.50;3.00;;;;;16.10;50.25;101061.50;5061479;28;45306;-58
2022/05/30 08:43:30;;;;;;;;;2.00;2.00;;;;;16.21;50.03;101060.69;5061829;28;45247;-58
2022/05/30 08:46:09;;;;;;;;;4.00;4.00;;;;;16.28;50.10;101061.06;5061271;28;46143;-58
2022/05/30 08:48:58;;;;;;;;;3.00;1.75;;;;;16.37;49.91;101057.69;5061086;28;45288;-58
2022/05/30 08:52:04;;;;;;;;;3.00;2.00;;;;;16.46;49.82;101054.28;5061617;28;45409;-58
2022/05/30 08:55:00;;;;;;;;;3.50;2.00;;;;;16.53;49.62;101059.97;5061306;28;45272;-58
2022/05/30 08:57:36;;;;;;;;;4.25;2.00;;;;;16.56;49.52;101057.06;5061090;28;45396;-58
2022/05/30 09:00:14;;;;;;;;;1.00;1.00;;;;;16.58;49.50;101060.44;5061292;28;45308;-58
2022/05/30 09:02:47;;;;;;;;;2.75;2.50;;;;;16.60;49.37;101058.53;5061390;28;45294;-58
2022/05/30 09:05:22;;;;;;;;;1.75;1.75;;;;;16.65;49.09;101053.66;5061347;28;45226;-58
2022/05/30 09:07:54;;;;;;;;;3.00;2.00;;;;;16.63;49.00;101045.81;5060956;28;46237;-58
2022/05/30 09:10:31;;;;;;;;;1.25;1.00;;;;;16.66;48.78;101044.72;5061007;28;45375;-58
2022/05/30 09:13:00;;;;;;;;;1.00;1.00;;;;;16.63;48.59;101045.81;5064114;28;45322;-58
2022/05/30 09:15:40;;;;;;;;;1.00;1.00;;;;;16.64;48.41;101052.84;5061334;28;45204;-58
2022/05/30 09:18:10;;;;;;;;;2.75;2.00;;;;;16.68;48.34;101059.63;5060830;28;46089;-58
2022/05/30 09:20:41;;;;;;;;;3.00;2.00;;;;;16.77;48.65;101055.41;5059590;28;45289;-58
2022/05/30 09:23:08;;;;;;;;;2.50;2.00;;;;;16.79;48.17;101047.28;5059708;28;45745;-58
2022/05/30 09:25:57;;;;;;;;;5.00;1.50;;;;;16.82;48.08;101044.38;5060724;28;45159;-59
2022/05/30 09:28:33;;;;;;;;;2.25;2.00;;;;;16.87;47.94;101052.84;5060899;28;46280;-58
2022/05/30 09:31:07;;;;;;;;;1.00;1.00;;;;;16.92;47.80;101043.53;5060546;28;45455;-58
2022/05/30 09:33:39;;;;;;;;;3.00;1.50;;;;;16.85;47.70;101047.66;5060888;28;45477;-58
2022/05/30 09:36:29;;;;;;;;;1.50;1.25;;;;;16.91;47.52;101048.97;5060808;28;45540;-58
2022/05/30 09:39:02;;;;;;;;;3.00;2.00;;;;;16.96;47.36;101044.09;5060706;28;46166;-58
2022/05/30 09:41:35;;;;;;;;;2.50;1.50;;;;;17.01;47.42;101040.09;5060383;28;45185;-58
2022/05/30 09:44:11;;;;;;;;;2.50;2.25;;;;;17.04;47.18;101028.34;5060716;28;45286;-58
2022/05/30 09:46:43;;;;;;;;;1.00;1.00;;;;;17.12;46.99;101025.06;5060828;28;45320;-58
2022/05/30 09:49:20;;;;;;;;;3.00;1.00;;;;;17.08;47.12;101021.81;5060384;28;45331;-58
2022/05/30 09:51:46;;;;;;;;;2.75;2.50;;;;;17.01;46.77;101024.13;5060558;28;45512;-59
2022/05/30 09:54:34;;;;;;;;;3.25;2.00;;;;;16.95;46.59;101024.63;5059092;28;45272;-59
2022/05/30 09:57:06;;;;;;;;;3.50;2.75;;;;;16.96;46.62;101020.16;5060081;28;45661;-58
2022/05/30 09:59:42;;;;;;;;;3.00;3.00;;;;;17.07;46.52;101022.81;5060551;28;45488;-58
2022/05/30 10:02:32;;;;;;;;;1.00;1.00;;;;;17.26;46.60;101030.09;5060439;28;45247;-58
2022/05/30 10:05:04;;;;;;;;;1.00;1.00;;;;;17.29;46.42;101021.84;5060427;28;45162;-58
2022/05/30 10:07:32;;;;;;;;;1.50;1.50;;;;;17.39;46.05;101012.16;5063217;28;45385;-58
2022/05/30 10:10:20;;;;;;;;;1.25;1.25;;;;;17.48;46.23;101018.53;5063472;28;45415;-58
2022/05/30 10:12:54;;;;;;;;;1.75;1.75;;;;;17.64;46.08;101021.59;5067402;28;45406;-58
2022/05/30 10:15:29;;;;;;;;;2.00;2.00;;;;;17.77;45.85;101021.41;5063594;28;45296;-58
2022/05/30 10:18:17;;;;;;;;;2.00;1.00;;;;;17.87;45.76;101019.66;5063604;28;45220;-58
2022/05/30 10:21:23;;;;;;;;;1.75;1.00;;;;;17.92;45.80;101012.09;5063175;28;45498;-58
2022/05/30 10:30:06;;;;;;;;;2.00;1.00;;;;;17.96;44.96;101018.88;5063451;28;45311;-58
2022/05/30 10:32:52;;;;;;;;;1.75;0.75;;;;;18.05;45.05;101009.25;5063034;28;46236;-58
2022/05/30 10:35:27;;;;;;;;;1.50;1.00;;;;;18.16;45.10;101013.63;5061773;28;45573;-58
2022/05/30 10:38:16;;;;;;;;;2.75;2.25;;;;;18.31;44.95;101018.47;5063212;28;45402;-58
2022/05/30 10:41:28;;;;;;;;;2.00;2.00;;;;;18.42;44.87;101014.88;5062493;28;45323;-58
2022/05/30 10:44:09;;;;;;;;;3.50;1.50;;;;;18.52;44.72;101021.09;5040129;28;46156;-58
2022/05/30 10:46:53;;;;;;;;;4.00;1.00;;;;;18.62;44.48;101016.63;5060111;28;45185;-58
2022/05/30 10:49:22;;;;;;;;;1.00;1.00;;;;;18.55;44.58;101023.47;5062944;28;45234;-58
2022/05/30 10:51:59;;;;;;;;;1.50;1.00;;;;;18.50;44.47;101020.38;5063106;28;45370;-58
2022/05/30 10:54:38;;;;;;;;;2.25;2.00;;;;;18.64;44.44;101012.00;5062702;28;46103;-58
2022/05/30 10:57:25;;;;;;;;;4.50;3.50;;;;;18.74;44.38;101027.25;5062330;28;45722;-59
2022/05/30 11:00:09;;;;;;;;;4.25;2.75;;;;;18.65;44.37;101008.41;5062674;28;45238;-58
2022/05/30 11:02:57;;;;;;;;;3.00;3.00;;;;;18.55;43.96;101011.97;5062921;28;45300;-58
2022/05/30 11:05:29;;;;;;;;;2.00;1.75;;;;;18.42;43.68;101022.88;5062749;28;46294;-59
2022/05/30 11:08:05;;;;;;;;;4.00;2.25;;;;;18.33;43.97;101015.69;5062801;28;45374;-58
2022/05/30 11:10:54;;;;;;;;;3.00;2.00;;;;;18.48;43.67;101017.00;5062469;28;45350;-58
2022/05/30 11:13:32;;;;;;;;;3.25;2.25;;;;;18.63;43.54;101010.31;5061528;28;45443;-58
2022/05/30 11:16:35;;;;;;;;;3.00;1.00;;;;;18.80;43.78;101011.53;5062771;28;46272;-58
2022/05/30 11:19:08;;;;;;;;;3.00;2.00;;;;;18.69;43.32;101011.63;5061357;28;45455;-60
2022/05/30 11:21:54;;;;;;;;;3.25;2.00;;;;;18.48;43.46;101010.81;5062720;28;45331;-58
2022/05/30 11:24:20;;;;;;;;;2.25;2.25;;;;;18.33;43.32;101013.03;5062473;28;45759;-59
2022/05/30 11:27:14;;;;;;;;;2.00;1.75;;;;;18.24;42.95;101011.97;5062304;28;46158;-58
2022/05/30 11:30:18;;;;;;;;;2.00;1.25;;;;;18.22;42.82;101007.78;5062482;28;45421;-58
2022/05/30 11:33:07;;;;;;;;;2.50;2.50;;;;;18.19;42.89;101005.38;5062543;28;45486;-58
2022/05/30 11:35:36;;;;;;;;;1.00;1.00;;;;;18.20;43.00;100999.91;5062760;28;45445;-59
2022/05/30 11:38:07;;;;;;;;;1.00;1.00;;;;;18.29;42.51;101001.78;5062474;28;46216;-58
2022/05/30 11:40:44;;;;;;;;;0.25;0.25;;;;;18.50;42.72;100991.03;5061956;28;45453;-58
2022/05/30 11:43:34;;;;;;;;;3.25;1.75;;;;;18.76;42.66;100998.56;5062565;28;45282;-59
2022/05/30 11:46:20;;;;;;;;;1.75;1.50;;;;;19.02;42.95;100997.06;5062443;28;45467;-59
2022/05/30 11:49:05;;;;;;;;;4.00;3.00;;;;;19.21;42.29;100994.41;5062168;28;45738;-58
2022/05/30 11:51:51;;;;;;;;;1.25;1.25;;;;;19.36;42.67;100994.00;5062314;28;45322;-58
2022/05/30 11:54:49;;;;;;;;;3.00;2.00;;;;;19.47;42.46;101000.03;5062528;28;45375;-58
2022/05/30 11:57:30;;;;;;;;;2.25;2.25;;;;;19.58;42.11;100998.22;5057187;28;45246;-58
2022/05/30 12:00:11;;;;;;;;;0.00;0.00;;;;;19.68;41.79;100988.38;5062055;28;46108;-58